Schofield Barracks, Hawaii
Current Conditions -  °F | °C
As of 3:58 PM on Thursday 18 Dec 2014 (Local Time) from PHHI Reporting Station
Broken Clouds Broken Clouds  
Wind Chill: 73°   Ceiling: 2000
Heat Index: 73°   Visibility: 10mi
Dew Point: 66°   Wind: 6mph
Humidity: 79%   Direction: NA
Pressure: 30.06"   Gusts: 16mph
Location:  21.5°N, 158.06°W
Report Text: PHHI 190158Z AUTO VRB05G14KT 10SM BKN020 BKN026 23/19 A3006 RMK AO2 DZB0106E0116 SLP171 P0000 T02270188 $
Loading
Personal Weather Stations






























Interactive Weather Map New forecast layout! Learn more

10-Day Weather Forecast

Advertisements
Track Severe Weather on mobile